sensor_id;sensor_type;location;lat;lon;timestamp;temperature;humidity
490;DHT22;231;48.120;11.576;2023-04-06T00:00:32;-1.60;43.70
490;DHT22;231;48.120;11.576;2023-04-06T00:03:00;-1.60;44.00
490;DHT22;231;48.120;11.576;2023-04-06T00:05:27;-1.60;44.90
490;DHT22;231;48.120;11.576;2023-04-06T00:07:56;-1.60;45.40
490;DHT22;231;48.120;11.576;2023-04-06T00:10:23;-1.60;45.60
490;DHT22;231;48.120;11.576;2023-04-06T00:12:51;-1.60;45.60
490;DHT22;231;48.120;11.576;2023-04-06T00:15:17;-1.60;45.80
490;DHT22;231;48.120;11.576;2023-04-06T00:17:45;-1.60;45.90
490;DHT22;231;48.120;11.576;2023-04-06T00:20:13;-1.60;46.30
490;DHT22;231;48.120;11.576;2023-04-06T00:22:40;-1.60;46.70
490;DHT22;231;48.120;11.576;2023-04-06T00:25:07;-1.70;46.90
490;DHT22;231;48.120;11.576;2023-04-06T00:27:35;-1.70;46.90
490;DHT22;231;48.120;11.576;2023-04-06T00:30:02;-1.70;47.30
490;DHT22;231;48.120;11.576;2023-04-06T00:32:30;-1.70;47.60
490;DHT22;231;48.120;11.576;2023-04-06T00:34:57;-1.70;48.00
490;DHT22;231;48.120;11.576;2023-04-06T00:37:25;-1.80;48.20
490;DHT22;231;48.120;11.576;2023-04-06T00:39:52;-1.80;48.60
490;DHT22;231;48.120;11.576;2023-04-06T00:42:21;-1.80;48.80
490;DHT22;231;48.120;11.576;2023-04-06T00:44:51;-1.80;49.20
490;DHT22;231;48.120;11.576;2023-04-06T00:47:18;-1.80;49.50
490;DHT22;231;48.120;11.576;2023-04-06T00:49:45;-1.80;49.60
490;DHT22;231;48.120;11.576;2023-04-06T00:52:12;-1.90;49.60
490;DHT22;231;48.120;11.576;2023-04-06T00:54:41;-1.90;49.50
490;DHT22;231;48.120;11.576;2023-04-06T00:57:08;-1.90;49.20
490;DHT22;231;48.120;11.576;2023-04-06T00:59:35;-1.90;48.80
490;DHT22;231;48.120;11.576;2023-04-06T01:02:02;-1.90;48.60
490;DHT22;231;48.120;11.576;2023-04-06T01:04:31;-1.90;48.60
490;DHT22;231;48.120;11.576;2023-04-06T01:06:58;-1.90;48.50
490;DHT22;231;48.120;11.576;2023-04-06T01:09:27;-1.90;48.50
490;DHT22;231;48.120;11.576;2023-04-06T01:11:56;-1.90;48.30
490;DHT22;231;48.120;11.576;2023-04-06T01:14:23;-2.00;47.90
490;DHT22;231;48.120;11.576;2023-04-06T01:16:51;-2.00;47.50
490;DHT22;231;48.120;11.576;2023-04-06T01:19:18;-2.00;47.00
490;DHT22;231;48.120;11.576;2023-04-06T01:21:46;-2.00;46.30
490;DHT22;231;48.120;11.576;2023-04-06T01:24:16;-2.00;45.50
490;DHT22;231;48.120;11.576;2023-04-06T01:26:43;-2.00;44.90
490;DHT22;231;48.120;11.576;2023-04-06T01:29:10;-2.00;44.60
490;DHT22;231;48.120;11.576;2023-04-06T01:31:38;-2.00;44.00
490;DHT22;231;48.120;11.576;2023-04-06T01:34:05;-2.00;43.30
490;DHT22;231;48.120;11.576;2023-04-06T01:36:32;-2.10;42.90
490;DHT22;231;48.120;11.576;2023-04-06T01:38:59;-2.10;42.50
490;DHT22;231;48.120;11.576;2023-04-06T01:41:27;-2.10;42.40
490;DHT22;231;48.120;11.576;2023-04-06T01:43:54;-2.10;42.10
490;DHT22;231;48.120;11.576;2023-04-06T01:46:21;-2.10;41.70
490;DHT22;231;48.120;11.576;2023-04-06T01:48:48;-2.10;41.40
490;DHT22;231;48.120;11.576;2023-04-06T01:51:15;-2.10;41.00
490;DHT22;231;48.120;11.576;2023-04-06T01:53:42;-2.10;40.70
490;DHT22;231;48.120;11.576;2023-04-06T01:56:10;-2.20;40.40
490;DHT22;231;48.120;11.576;2023-04-06T01:58:38;-2.20;40.50
490;DHT22;231;48.120;11.576;2023-04-06T02:01:05;-2.20;41.00
490;DHT22;231;48.120;11.576;2023-04-06T02:03:32;-2.20;41.30
490;DHT22;231;48.120;11.576;2023-04-06T02:05:59;-2.20;41.30
490;DHT22;231;48.120;11.576;2023-04-06T02:08:25;-2.20;41.30
490;DHT22;231;48.120;11.576;2023-04-06T02:10:52;-2.20;41.30
490;DHT22;231;48.120;11.576;2023-04-06T02:13:19;-2.20;41.30
490;DHT22;231;48.120;11.576;2023-04-06T02:15:47;-2.20;41.00
490;DHT22;231;48.120;11.576;2023-04-06T02:18:15;-2.20;41.00
490;DHT22;231;48.120;11.576;2023-04-06T02:20:43;-2.30;41.00
490;DHT22;231;48.120;11.576;2023-04-06T02:23:09;-2.30;41.20
490;DHT22;231;48.120;11.576;2023-04-06T02:25:36;-2.30;41.60
490;DHT22;231;48.120;11.576;2023-04-06T02:28:04;-2.30;42.10
490;DHT22;231;48.120;11.576;2023-04-06T02:30:31;-2.30;42.30
490;DHT22;231;48.120;11.576;2023-04-06T02:32:59;-2.30;42.60
490;DHT22;231;48.120;11.576;2023-04-06T02:35:27;-2.30;43.00
490;DHT22;231;48.120;11.576;2023-04-06T02:37:54;-2.30;43.30
490;DHT22;231;48.120;11.576;2023-04-06T02:40:21;-2.30;43.40
490;DHT22;231;48.120;11.576;2023-04-06T02:42:48;-2.30;43.50
490;DHT22;231;48.120;11.576;2023-04-06T02:45:16;-2.30;43.70
490;DHT22;231;48.120;11.576;2023-04-06T02:47:43;-2.40;43.90
490;DHT22;231;48.120;11.576;2023-04-06T02:50:11;-2.40;44.20
490;DHT22;231;48.120;11.576;2023-04-06T02:52:38;-2.40;44.70
490;DHT22;231;48.120;11.576;2023-04-06T02:55:06;-2.40;45.50
490;DHT22;231;48.120;11.576;2023-04-06T02:57:33;-2.40;46.40
490;DHT22;231;48.120;11.576;2023-04-06T03:00:00;-2.40;47.00
490;DHT22;231;48.120;11.576;2023-04-06T03:02:27;-2.40;47.70
490;DHT22;231;48.120;11.576;2023-04-06T03:04:53;-2.40;48.10
490;DHT22;231;48.120;11.576;2023-04-06T03:07:22;-2.40;48.40
490;DHT22;231;48.120;11.576;2023-04-06T03:09:49;-2.50;48.70
490;DHT22;231;48.120;11.576;2023-04-06T03:12:16;-2.50;49.10
490;DHT22;231;48.120;11.576;2023-04-06T03:14:43;-2.50;49.30
490;DHT22;231;48.120;11.576;2023-04-06T03:17:10;-2.50;49.50
490;DHT22;231;48.120;11.576;2023-04-06T03:19:37;-2.50;50.20
490;DHT22;231;48.120;11.576;2023-04-06T03:22:03;-2.50;50.70
490;DHT22;231;48.120;11.576;2023-04-06T03:24:32;-2.50;51.30
490;DHT22;231;48.120;11.576;2023-04-06T03:26:59;-2.50;51.60
490;DHT22;231;48.120;11.576;2023-04-06T03:29:26;-2.50;51.80
490;DHT22;231;48.120;11.576;2023-04-06T03:31:53;-2.50;51.90
490;DHT22;231;48.120;11.576;2023-04-06T03:34:20;-2.50;52.30
490;DHT22;231;48.120;11.576;2023-04-06T03:36:47;-2.50;52.90
490;DHT22;231;48.120;11.576;2023-04-06T03:39:13;-2.50;53.30
490;DHT22;231;48.120;11.576;2023-04-06T03:41:42;-2.50;53.50
490;DHT22;231;48.120;11.576;2023-04-06T03:44:10;-2.50;53.60
490;DHT22;231;48.120;11.576;2023-04-06T03:46:36;-2.50;53.40
490;DHT22;231;48.120;11.576;2023-04-06T03:49:03;-2.50;53.50
490;DHT22;231;48.120;11.576;2023-04-06T03:51:30;-2.50;53.50
490;DHT22;231;48.120;11.576;2023-04-06T03:53:57;-2.40;53.20
490;DHT22;231;48.120;11.576;2023-04-06T03:56:24;-2.40;53.60
490;DHT22;231;48.120;11.576;2023-04-06T03:58:55;-2.40;52.90
490;DHT22;231;48.120;11.576;2023-04-06T04:01:22;-2.40;52.90
490;DHT22;231;48.120;11.576;2023-04-06T04:03:49;-2.40;53.00
490;DHT22;231;48.120;11.576;2023-04-06T04:06:16;-2.40;52.80
490;DHT22;231;48.120;11.576;2023-04-06T04:08:43;-2.40;52.40
490;DHT22;231;48.120;11.576;2023-04-06T04:11:10;-2.40;52.40
490;DHT22;231;48.120;11.576;2023-04-06T04:13:37;-2.40;52.20
490;DHT22;231;48.120;11.576;2023-04-06T04:16:05;-2.40;52.00
490;DHT22;231;48.120;11.576;2023-04-06T04:18:32;-2.40;51.80
490;DHT22;231;48.120;11.576;2023-04-06T04:20:59;-2.40;51.70
490;DHT22;231;48.120;11.576;2023-04-06T04:23:26;-2.40;51.70
490;DHT22;231;48.120;11.576;2023-04-06T04:25:53;-2.40;51.70
490;DHT22;231;48.120;11.576;2023-04-06T04:28:20;-2.40;51.50
490;DHT22;231;48.120;11.576;2023-04-06T04:30:47;-2.50;51.60
490;DHT22;231;48.120;11.576;2023-04-06T04:33:16;-2.50;51.70
490;DHT22;231;48.120;11.576;2023-04-06T04:35:43;-2.50;52.10
490;DHT22;231;48.120;11.576;2023-04-06T04:38:09;-2.50;52.70
490;DHT22;231;48.120;11.576;2023-04-06T04:40:36;-2.50;53.10
490;DHT22;231;48.120;11.576;2023-04-06T04:43:03;-2.50;53.50
490;DHT22;231;48.120;11.576;2023-04-06T04:45:30;-2.50;54.00
490;DHT22;231;48.120;11.576;2023-04-06T04:47:57;-2.50;54.40
490;DHT22;231;48.120;11.576;2023-04-06T04:50:25;-2.40;55.10
490;DHT22;231;48.120;11.576;2023-04-06T04:52:52;-2.40;56.30
490;DHT22;231;48.120;11.576;2023-04-06T04:55:19;-2.40;56.50
490;DHT22;231;48.120;11.576;2023-04-06T04:57:46;-2.30;56.90
490;DHT22;231;48.120;11.576;2023-04-06T05:00:14;-2.30;56.50
490;DHT22;231;48.120;11.576;2023-04-06T05:02:40;-2.20;56.60
490;DHT22;231;48.120;11.576;2023-04-06T05:05:08;-2.10;56.70
490;DHT22;231;48.120;11.576;2023-04-06T05:07:36;-2.00;55.80
490;DHT22;231;48.120;11.576;2023-04-06T05:10:04;-2.00;54.20
490;DHT22;231;48.120;11.576;2023-04-06T05:12:31;-1.90;53.10
490;DHT22;231;48.120;11.576;2023-04-06T05:14:58;-1.90;51.90
490;DHT22;231;48.120;11.576;2023-04-06T05:17:25;-1.80;50.80
490;DHT22;231;48.120;11.576;2023-04-06T05:19:52;-1.70;49.80
490;DHT22;231;48.120;11.576;2023-04-06T05:22:19;-1.60;48.70
490;DHT22;231;48.120;11.576;2023-04-06T05:24:48;-1.40;48.40
490;DHT22;231;48.120;11.576;2023-04-06T05:27:15;-1.20;48.10
490;DHT22;231;48.120;11.576;2023-04-06T05:29:42;-0.90;47.60
490;DHT22;231;48.120;11.576;2023-04-06T05:32:09;-0.60;46.30
490;DHT22;231;48.120;11.576;2023-04-06T05:34:37;-0.30;43.80
490;DHT22;231;48.120;11.576;2023-04-06T05:37:04;0.00;40.10
490;DHT22;231;48.120;11.576;2023-04-06T05:39:30;0.30;36.10
490;DHT22;231;48.120;11.576;2023-04-06T05:42:03;0.50;32.00
490;DHT22;231;48.120;11.576;2023-04-06T05:44:30;0.70;28.20
490;DHT22;231;48.120;11.576;2023-04-06T05:46:57;0.90;25.60
490;DHT22;231;48.120;11.576;2023-04-06T05:49:24;1.10;23.70
490;DHT22;231;48.120;11.576;2023-04-06T05:51:51;1.30;22.30
490;DHT22;231;48.120;11.576;2023-04-06T05:54:18;1.50;20.90
490;DHT22;231;48.120;11.576;2023-04-06T05:56:44;1.70;19.40
490;DHT22;231;48.120;11.576;2023-04-06T05:59:13;1.90;18.10
490;DHT22;231;48.120;11.576;2023-04-06T06:01:40;2.00;17.10
490;DHT22;231;48.120;11.576;2023-04-06T06:04:08;2.10;16.00
490;DHT22;231;48.120;11.576;2023-04-06T06:06:35;2.10;15.90
490;DHT22;231;48.120;11.576;2023-04-06T06:09:02;2.10;15.70
490;DHT22;231;48.120;11.576;2023-04-06T06:11:29;2.10;15.60
490;DHT22;231;48.120;11.576;2023-04-06T06:13:56;2.20;15.50
490;DHT22;231;48.120;11.576;2023-04-06T06:16:25;2.20;15.40
490;DHT22;231;48.120;11.576;2023-04-06T06:18:52;2.20;15.10
490;DHT22;231;48.120;11.576;2023-04-06T06:21:19;2.30;15.00
490;DHT22;231;48.120;11.576;2023-04-06T06:23:46;2.30;15.10
490;DHT22;231;48.120;11.576;2023-04-06T06:26:15;2.40;15.30
490;DHT22;231;48.120;11.576;2023-04-06T06:28:42;2.50;15.00
490;DHT22;231;48.120;11.576;2023-04-06T06:31:08;2.60;15.00
490;DHT22;231;48.120;11.576;2023-04-06T06:33:37;2.70;15.00
490;DHT22;231;48.120;11.576;2023-04-06T06:36:04;2.80;15.00
490;DHT22;231;48.120;11.576;2023-04-06T06:38:31;3.00;14.60
490;DHT22;231;48.120;11.576;2023-04-06T06:40:58;3.10;13.90
490;DHT22;231;48.120;11.576;2023-04-06T06:43:25;3.30;13.60
490;DHT22;231;48.120;11.576;2023-04-06T06:45:52;3.50;12.70
490;DHT22;231;48.120;11.576;2023-04-06T06:48:20;3.80;12.40
490;DHT22;231;48.120;11.576;2023-04-06T06:50:49;4.10;11.90
490;DHT22;231;48.120;11.576;2023-04-06T06:53:16;4.60;10.90
490;DHT22;231;48.120;11.576;2023-04-06T06:55:43;5.00;9.40
490;DHT22;231;48.120;11.576;2023-04-06T06:58:10;5.40;8.20
490;DHT22;231;48.120;11.576;2023-04-06T07:00:38;5.80;7.60
490;DHT22;231;48.120;11.576;2023-04-06T07:03:05;7.00;8.30
490;DHT22;231;48.120;11.576;2023-04-06T07:05:32;9.30;5.10
490;DHT22;231;48.120;11.576;2023-04-06T07:08:00;11.70;1.00
490;DHT22;231;48.120;11.576;2023-04-06T07:10:27;14.30;1.00
490;DHT22;231;48.120;11.576;2023-04-06T07:12:54;16.90;1.00
490;DHT22;231;48.120;11.576;2023-04-06T07:15:22;19.00;1.00
490;DHT22;231;48.120;11.576;2023-04-06T07:17:49;19.80;1.00
490;DHT22;231;48.120;11.576;2023-04-06T07:20:17;19.00;1.00
490;DHT22;231;48.120;11.576;2023-04-06T07:22:44;17.80;1.00
490;DHT22;231;48.120;11.576;2023-04-06T07:25:13;16.90;1.00
490;DHT22;231;48.120;11.576;2023-04-06T07:27:40;16.60;1.00
490;DHT22;231;48.120;11.576;2023-04-06T07:30:08;17.20;1.00
490;DHT22;231;48.120;11.576;2023-04-06T07:32:35;16.90;1.00
490;DHT22;231;48.120;11.576;2023-04-06T07:35:02;16.70;1.00
490;DHT22;231;48.120;11.576;2023-04-06T11:25:08;33.00;1.00
490;DHT22;231;48.120;11.576;2023-04-06T11:27:35;32.90;1.00
490;DHT22;231;48.120;11.576;2023-04-06T11:30:03;32.50;1.00
490;DHT22;231;48.120;11.576;2023-04-06T11:32:39;31.60;1.00
490;DHT22;231;48.120;11.576;2023-04-06T11:35:07;30.80;1.00
490;DHT22;231;48.120;11.576;2023-04-06T11:37:37;30.80;1.00
490;DHT22;231;48.120;11.576;2023-04-06T11:40:09;31.50;1.00
490;DHT22;231;48.120;11.576;2023-04-06T11:42:36;32.20;1.00
490;DHT22;231;48.120;11.576;2023-04-06T11:45:05;32.40;1.00
490;DHT22;231;48.120;11.576;2023-04-06T11:47:35;32.00;1.00
490;DHT22;231;48.120;11.576;2023-04-06T11:50:07;32.10;1.00
490;DHT22;231;48.120;11.576;2023-04-06T11:52:34;32.20;1.00
490;DHT22;231;48.120;11.576;2023-04-06T11:55:12;32.90;1.00
490;DHT22;231;48.120;11.576;2023-04-06T11:57:40;33.40;1.00
490;DHT22;231;48.120;11.576;2023-04-06T12:00:08;33.40;1.00
490;DHT22;231;48.120;11.576;2023-04-06T12:02:36;33.90;1.00
490;DHT22;231;48.120;11.576;2023-04-06T12:05:04;33.90;1.00
490;DHT22;231;48.120;11.576;2023-04-06T12:07:32;33.90;1.00
490;DHT22;231;48.120;11.576;2023-04-06T12:10:03;33.70;1.00
490;DHT22;231;48.120;11.576;2023-04-06T12:12:32;33.30;1.00
490;DHT22;231;48.120;11.576;2023-04-06T12:14:59;32.90;1.00
490;DHT22;231;48.120;11.576;2023-04-06T12:17:26;32.60;1.00
490;DHT22;231;48.120;11.576;2023-04-06T12:19:53;32.40;1.00
490;DHT22;231;48.120;11.576;2023-04-06T12:22:20;32.20;1.00
490;DHT22;231;48.120;11.576;2023-04-06T12:24:47;31.70;1.00
490;DHT22;231;48.120;11.576;2023-04-06T12:27:15;31.50;1.00
490;DHT22;231;48.120;11.576;2023-04-06T12:29:43;30.00;1.00
490;DHT22;231;48.120;11.576;2023-04-06T12:32:10;28.40;1.00
490;DHT22;231;48.120;11.576;2023-04-06T12:34:38;26.80;1.00
490;DHT22;231;48.120;11.576;2023-04-06T12:37:05;25.70;1.00
490;DHT22;231;48.120;11.576;2023-04-06T12:39:32;24.80;1.00
490;DHT22;231;48.120;11.576;2023-04-06T12:42:00;24.90;1.00
490;DHT22;231;48.120;11.576;2023-04-06T12:44:28;25.40;1.00
490;DHT22;231;48.120;11.576;2023-04-06T12:46:57;26.00;1.00
490;DHT22;231;48.120;11.576;2023-04-06T12:49:24;26.60;1.00
490;DHT22;231;48.120;11.576;2023-04-06T12:51:51;26.40;1.00
490;DHT22;231;48.120;11.576;2023-04-06T12:54:18;25.60;1.00
490;DHT22;231;48.120;11.576;2023-04-06T12:56:45;24.80;1.00
490;DHT22;231;48.120;11.576;2023-04-06T12:59:12;24.00;1.00
490;DHT22;231;48.120;11.576;2023-04-06T13:01:39;23.40;1.00
490;DHT22;231;48.120;11.576;2023-04-06T13:04:07;22.60;1.00
490;DHT22;231;48.120;11.576;2023-04-06T13:06:34;21.90;1.00
490;DHT22;231;48.120;11.576;2023-04-06T13:09:01;21.20;1.00
490;DHT22;231;48.120;11.576;2023-04-06T13:11:29;20.80;1.00
490;DHT22;231;48.120;11.576;2023-04-06T13:13:57;20.30;1.00
490;DHT22;231;48.120;11.576;2023-04-06T13:16:24;19.90;1.00
490;DHT22;231;48.120;11.576;2023-04-06T13:18:50;19.30;1.00
490;DHT22;231;48.120;11.576;2023-04-06T13:21:19;18.90;1.00
490;DHT22;231;48.120;11.576;2023-04-06T13:23:46;18.40;1.00
490;DHT22;231;48.120;11.576;2023-04-06T13:26:13;18.10;1.00
490;DHT22;231;48.120;11.576;2023-04-06T13:28:41;17.90;1.00
490;DHT22;231;48.120;11.576;2023-04-06T13:31:08;17.90;1.00
490;DHT22;231;48.120;11.576;2023-04-06T13:33:35;17.80;1.00
490;DHT22;231;48.120;11.576;2023-04-06T13:36:03;17.70;1.00
490;DHT22;231;48.120;11.576;2023-04-06T13:38:31;17.50;1.00
490;DHT22;231;48.120;11.576;2023-04-06T13:40:59;17.40;1.00
490;DHT22;231;48.120;11.576;2023-04-06T13:43:26;17.30;1.00
490;DHT22;231;48.120;11.576;2023-04-06T13:45:54;17.40;1.00
490;DHT22;231;48.120;11.576;2023-04-06T13:48:21;17.40;1.00
490;DHT22;231;48.120;11.576;2023-04-06T13:50:48;17.70;1.00
490;DHT22;231;48.120;11.576;2023-04-06T13:53:16;17.90;1.00
490;DHT22;231;48.120;11.576;2023-04-06T13:55:51;18.20;1.00
490;DHT22;231;48.120;11.576;2023-04-06T13:58:18;18.40;1.00
490;DHT22;231;48.120;11.576;2023-04-06T14:00:46;18.40;1.00
490;DHT22;231;48.120;11.576;2023-04-06T14:03:13;18.40;1.00
490;DHT22;231;48.120;11.576;2023-04-06T14:05:40;18.20;1.00
490;DHT22;231;48.120;11.576;2023-04-06T14:08:07;17.70;1.00
490;DHT22;231;48.120;11.576;2023-04-06T14:10:37;17.20;1.00
490;DHT22;231;48.120;11.576;2023-04-06T14:13:05;16.80;1.00
490;DHT22;231;48.120;11.576;2023-04-06T14:15:32;16.50;1.00
490;DHT22;231;48.120;11.576;2023-04-06T14:17:59;16.30;1.00
490;DHT22;231;48.120;11.576;2023-04-06T14:20:27;16.20;1.00
490;DHT22;231;48.120;11.576;2023-04-06T14:22:53;16.20;1.00
490;DHT22;231;48.120;11.576;2023-04-06T14:25:21;16.20;1.00
490;DHT22;231;48.120;11.576;2023-04-06T14:27:48;16.10;1.00
490;DHT22;231;48.120;11.576;2023-04-06T14:30:16;16.20;1.00
490;DHT22;231;48.120;11.576;2023-04-06T14:32:43;16.20;1.00
490;DHT22;231;48.120;11.576;2023-04-06T14:35:10;16.30;1.00
490;DHT22;231;48.120;11.576;2023-04-06T14:37:37;16.30;1.00
490;DHT22;231;48.120;11.576;2023-04-06T14:40:05;16.00;1.00
490;DHT22;231;48.120;11.576;2023-04-06T14:42:32;15.70;1.00
490;DHT22;231;48.120;11.576;2023-04-06T14:44:59;15.30;1.00
490;DHT22;231;48.120;11.576;2023-04-06T14:47:27;15.10;1.00
490;DHT22;231;48.120;11.576;2023-04-06T14:49:54;14.80;1.00
490;DHT22;231;48.120;11.576;2023-04-06T14:52:21;14.60;1.00
490;DHT22;231;48.120;11.576;2023-04-06T14:54:48;14.40;1.00
490;DHT22;231;48.120;11.576;2023-04-06T14:57:15;14.10;1.00
490;DHT22;231;48.120;11.576;2023-04-06T14:59:42;13.90;1.00
490;DHT22;231;48.120;11.576;2023-04-06T15:02:08;13.70;1.00
490;DHT22;231;48.120;11.576;2023-04-06T15:04:37;13.60;1.00
490;DHT22;231;48.120;11.576;2023-04-06T15:07:04;13.60;1.00
490;DHT22;231;48.120;11.576;2023-04-06T15:09:31;13.60;1.00
490;DHT22;231;48.120;11.576;2023-04-06T15:11:58;13.60;1.00
490;DHT22;231;48.120;11.576;2023-04-06T15:14:25;13.70;1.00
490;DHT22;231;48.120;11.576;2023-04-06T15:16:52;13.90;1.00
490;DHT22;231;48.120;11.576;2023-04-06T15:19:20;14.00;1.00
490;DHT22;231;48.120;11.576;2023-04-06T15:21:48;14.10;1.00
490;DHT22;231;48.120;11.576;2023-04-06T15:24:15;14.20;1.00
490;DHT22;231;48.120;11.576;2023-04-06T15:26:42;14.20;1.00
490;DHT22;231;48.120;11.576;2023-04-06T15:29:11;14.10;1.00
490;DHT22;231;48.120;11.576;2023-04-06T15:31:38;14.10;1.00
490;DHT22;231;48.120;11.576;2023-04-06T15:34:05;14.10;1.00
490;DHT22;231;48.120;11.576;2023-04-06T15:36:33;14.10;1.00
490;DHT22;231;48.120;11.576;2023-04-06T15:39:02;13.90;1.00
490;DHT22;231;48.120;11.576;2023-04-06T15:41:33;13.80;1.00
490;DHT22;231;48.120;11.576;2023-04-06T15:44:01;13.60;1.00
490;DHT22;231;48.120;11.576;2023-04-06T15:46:28;13.40;1.00
490;DHT22;231;48.120;11.576;2023-04-06T15:48:55;13.20;1.00
490;DHT22;231;48.120;11.576;2023-04-06T15:51:22;13.00;1.00
490;DHT22;231;48.120;11.576;2023-04-06T15:53:49;13.00;1.00
490;DHT22;231;48.120;11.576;2023-04-06T15:56:17;12.90;1.00
490;DHT22;231;48.120;11.576;2023-04-06T15:58:45;12.90;1.00
490;DHT22;231;48.120;11.576;2023-04-06T16:01:12;12.90;1.00
490;DHT22;231;48.120;11.576;2023-04-06T16:03:40;12.80;1.00
490;DHT22;231;48.120;11.576;2023-04-06T16:06:07;12.80;1.00
490;DHT22;231;48.120;11.576;2023-04-06T16:08:35;12.90;1.00
490;DHT22;231;48.120;11.576;2023-04-06T16:11:02;12.80;1.00
490;DHT22;231;48.120;11.576;2023-04-06T16:13:32;12.80;1.00
490;DHT22;231;48.120;11.576;2023-04-06T16:15:59;12.50;1.00
490;DHT22;231;48.120;11.576;2023-04-06T16:18:26;12.30;1.00
490;DHT22;231;48.120;11.576;2023-04-06T16:20:53;12.10;1.00
490;DHT22;231;48.120;11.576;2023-04-06T16:23:20;12.00;1.00
490;DHT22;231;48.120;11.576;2023-04-06T16:25:46;11.80;1.00
490;DHT22;231;48.120;11.576;2023-04-06T16:28:14;11.70;1.00
490;DHT22;231;48.120;11.576;2023-04-06T16:30:43;11.60;1.00
490;DHT22;231;48.120;11.576;2023-04-06T16:33:11;11.50;1.00
490;DHT22;231;48.120;11.576;2023-04-06T16:35:42;11.40;1.00
490;DHT22;231;48.120;11.576;2023-04-06T16:38:09;11.20;1.00
490;DHT22;231;48.120;11.576;2023-04-06T16:40:36;11.10;1.00
490;DHT22;231;48.120;11.576;2023-04-06T16:43:03;11.00;1.00
490;DHT22;231;48.120;11.576;2023-04-06T16:45:30;10.90;1.00
490;DHT22;231;48.120;11.576;2023-04-06T16:47:59;10.80;1.00
490;DHT22;231;48.120;11.576;2023-04-06T16:50:25;10.60;1.00
490;DHT22;231;48.120;11.576;2023-04-06T16:52:52;10.50;1.00
490;DHT22;231;48.120;11.576;2023-04-06T16:55:19;10.40;1.00
490;DHT22;231;48.120;11.576;2023-04-06T16:57:46;10.40;1.00
490;DHT22;231;48.120;11.576;2023-04-06T17:00:14;10.20;1.00
490;DHT22;231;48.120;11.576;2023-04-06T17:02:41;10.10;1.00
490;DHT22;231;48.120;11.576;2023-04-06T17:05:13;9.90;1.00
490;DHT22;231;48.120;11.576;2023-04-06T17:07:42;9.80;1.00
490;DHT22;231;48.120;11.576;2023-04-06T17:10:09;9.60;1.00
490;DHT22;231;48.120;11.576;2023-04-06T18:09:08;6.20;1.00
490;DHT22;231;48.120;11.576;2023-04-06T18:11:35;6.00;1.00
490;DHT22;231;48.120;11.576;2023-04-06T18:14:05;6.00;1.00
490;DHT22;231;48.120;11.576;2023-04-06T18:16:34;6.00;1.00
490;DHT22;231;48.120;11.576;2023-04-06T18:19:01;6.10;1.00
490;DHT22;231;48.120;11.576;2023-04-06T18:21:29;6.10;1.00
490;DHT22;231;48.120;11.576;2023-04-06T18:23:57;6.20;1.00
490;DHT22;231;48.120;11.576;2023-04-06T18:26:25;6.20;1.00
490;DHT22;231;48.120;11.576;2023-04-06T18:28:55;6.10;1.00
490;DHT22;231;48.120;11.576;2023-04-06T18:31:22;6.10;1.00
490;DHT22;231;48.120;11.576;2023-04-06T18:33:48;6.00;1.00
490;DHT22;231;48.120;11.576;2023-04-06T18:36:16;5.90;1.00
490;DHT22;231;48.120;11.576;2023-04-06T18:38:45;5.80;1.00
490;DHT22;231;48.120;11.576;2023-04-06T18:41:12;5.70;1.00
490;DHT22;231;48.120;11.576;2023-04-06T18:43:43;5.60;1.00
490;DHT22;231;48.120;11.576;2023-04-06T18:46:10;5.50;1.00
490;DHT22;231;48.120;11.576;2023-04-06T18:48:42;5.50;1.00
490;DHT22;231;48.120;11.576;2023-04-06T18:51:09;5.40;1.00
490;DHT22;231;48.120;11.576;2023-04-06T18:53:36;5.30;1.00
490;DHT22;231;48.120;11.576;2023-04-06T18:56:12;5.30;1.00
490;DHT22;231;48.120;11.576;2023-04-06T18:58:38;5.20;1.00
490;DHT22;231;48.120;11.576;2023-04-06T19:01:18;5.20;1.00
490;DHT22;231;48.120;11.576;2023-04-06T19:03:45;5.30;1.00
490;DHT22;231;48.120;11.576;2023-04-06T19:06:12;5.30;1.00
490;DHT22;231;48.120;11.576;2023-04-06T19:08:40;5.20;1.00
490;DHT22;231;48.120;11.576;2023-04-06T19:11:07;5.30;1.00
490;DHT22;231;48.120;11.576;2023-04-06T19:13:34;5.10;1.00
490;DHT22;231;48.120;11.576;2023-04-06T19:16:05;5.10;1.00
490;DHT22;231;48.120;11.576;2023-04-06T19:18:38;5.10;1.00
490;DHT22;231;48.120;11.576;2023-04-06T19:21:13;5.10;1.00
490;DHT22;231;48.120;11.576;2023-04-06T19:23:41;5.00;1.00
490;DHT22;231;48.120;11.576;2023-04-06T19:26:09;4.90;1.00
490;DHT22;231;48.120;11.576;2023-04-06T19:28:36;4.90;1.00
490;DHT22;231;48.120;11.576;2023-04-06T19:31:04;4.80;1.00
490;DHT22;231;48.120;11.576;2023-04-06T19:33:31;4.80;1.00
490;DHT22;231;48.120;11.576;2023-04-06T19:36:00;4.80;1.00
490;DHT22;231;48.120;11.576;2023-04-06T19:38:27;4.70;1.00
490;DHT22;231;48.120;11.576;2023-04-06T19:40:54;4.80;1.00
490;DHT22;231;48.120;11.576;2023-04-06T19:43:21;4.80;1.00
490;DHT22;231;48.120;11.576;2023-04-06T19:45:48;4.80;1.00
490;DHT22;231;48.120;11.576;2023-04-06T19:48:15;4.80;1.00
490;DHT22;231;48.120;11.576;2023-04-06T19:50:43;4.70;1.00
490;DHT22;231;48.120;11.576;2023-04-06T19:53:11;4.70;1.00
490;DHT22;231;48.120;11.576;2023-04-06T19:55:39;4.70;1.20
490;DHT22;231;48.120;11.576;2023-04-06T19:58:06;4.60;1.70
490;DHT22;231;48.120;11.576;2023-04-06T20:00:33;4.60;1.90
490;DHT22;231;48.120;11.576;2023-04-06T20:03:00;4.60;2.20
490;DHT22;231;48.120;11.576;2023-04-06T20:05:27;4.60;2.50
490;DHT22;231;48.120;11.576;2023-04-06T20:07:54;4.60;2.60
490;DHT22;231;48.120;11.576;2023-04-06T20:10:22;4.70;2.80
490;DHT22;231;48.120;11.576;2023-04-06T20:12:50;4.80;2.70
490;DHT22;231;48.120;11.576;2023-04-06T20:15:17;4.80;2.40
490;DHT22;231;48.120;11.576;2023-04-06T20:17:44;4.90;2.20
490;DHT22;231;48.120;11.576;2023-04-06T20:20:11;5.00;2.20
490;DHT22;231;48.120;11.576;2023-04-06T20:22:38;5.00;2.00
490;DHT22;231;48.120;11.576;2023-04-06T20:25:06;5.00;2.20
490;DHT22;231;48.120;11.576;2023-04-06T20:27:35;5.00;2.20
490;DHT22;231;48.120;11.576;2023-04-06T20:30:02;5.10;2.40
490;DHT22;231;48.120;11.576;2023-04-06T20:32:28;5.10;2.10
490;DHT22;231;48.120;11.576;2023-04-06T20:34:57;5.10;2.00
490;DHT22;231;48.120;11.576;2023-04-06T20:37:25;5.30;1.90
490;DHT22;231;48.120;11.576;2023-04-06T20:39:51;5.30;2.30
490;DHT22;231;48.120;11.576;2023-04-06T20:42:18;5.30;1.90
490;DHT22;231;48.120;11.576;2023-04-06T20:44:48;5.30;2.20
490;DHT22;231;48.120;11.576;2023-04-06T20:47:15;5.30;2.40
490;DHT22;231;48.120;11.576;2023-04-06T20:49:42;5.30;2.40
490;DHT22;231;48.120;11.576;2023-04-06T20:52:09;5.30;2.50
490;DHT22;231;48.120;11.576;2023-04-06T20:54:36;5.20;2.60
490;DHT22;231;48.120;11.576;2023-04-06T20:57:03;5.10;2.70
490;DHT22;231;48.120;11.576;2023-04-06T20:59:30;5.10;2.90
490;DHT22;231;48.120;11.576;2023-04-06T21:01:58;5.10;3.10
490;DHT22;231;48.120;11.576;2023-04-06T21:04:25;4.90;3.30
490;DHT22;231;48.120;11.576;2023-04-06T21:06:52;4.90;3.90
490;DHT22;231;48.120;11.576;2023-04-06T21:09:19;4.70;4.70
490;DHT22;231;48.120;11.576;2023-04-06T21:11:46;4.60;5.10
490;DHT22;231;48.120;11.576;2023-04-06T21:14:13;4.50;5.30
490;DHT22;231;48.120;11.576;2023-04-06T21:16:40;4.50;5.60